EWG424 EDDK-LFMN
Flight info
| Callsign | EWG424 |
|---|---|
| Flight time | 1h 23m |
| Altitude | FL340 |
| Route | NVO2Q NVO Y868 NAVAK Z283 RITAX UT27 ROUSY GTQ POGOL LASAT MOROK GILIR GEVEA KOGAS MEDAM VEVAR VEVA8R |
| Aircraft | AN32/M-SDE3FGHIRWY/LB1 |
Departure
| Time | 2026-05-04 17:54 |
|---|---|
| Airport | Cologne Bonn Airport (EDDK) |
Arrival
| Time | 2026-05-04 19:17 |
|---|---|
| Airport | Nice-Côte d'Azur Airport (LFMN) |
| Time | Latitude | Longitude | Altitude | Speed | Heading |
|---|---|---|---|---|---|
| 2026-05-04 17:45 | 50.87801 | 7.12421 | 263 ft | 0 kts | 288° |
| 2026-05-04 17:49 | 50.87800 | 7.12426 | 241 ft | 2 kts | 288° |
| 2026-05-04 17:49 | 50.87796 | 7.12448 | 242 ft | 2 kts | 287° |
| 2026-05-04 17:49 | 50.87791 | 7.12471 | 243 ft | 2 kts | 288° |
| 2026-05-04 17:49 | 50.87786 | 7.12493 | 244 ft | 2 kts | 287° |
| 2026-05-04 17:50 | 50.87781 | 7.12516 | 244 ft | 2 kts | 305° |
| 2026-05-04 17:50 | 50.87770 | 7.12532 | 245 ft | 2 kts | 330° |
| 2026-05-04 17:50 | 50.87756 | 7.12540 | 245 ft | 2 kts | 355° |
| 2026-05-04 17:50 | 50.87744 | 7.12539 | 245 ft | 0 kts | 15° |
| 2026-05-04 17:51 | 50.87738 | 7.12535 | 244 ft | 1 kts | 18° |
| 2026-05-04 17:51 | 50.87737 | 7.12535 | 244 ft | 0 kts | 18° |
| 2026-05-04 17:52 | 50.87739 | 7.12536 | 244 ft | 1 kts | 19° |
| 2026-05-04 17:52 | 50.87763 | 7.12549 | 245 ft | 6 kts | 19° |
| 2026-05-04 17:52 | 50.87839 | 7.12590 | 247 ft | 16 kts | 19° |
| 2026-05-04 17:52 | 50.87943 | 7.12658 | 246 ft | 17 kts | 34° |
| 2026-05-04 17:53 | 50.88011 | 7.12809 | 245 ft | 18 kts | 82° |
| 2026-05-04 17:53 | 50.87972 | 7.12994 | 242 ft | 24 kts | 138° |
| 2026-05-04 17:53 | 50.87671 | 7.13453 | 245 ft | 95 kts | 137° |
| 2026-05-04 17:53 | 50.87031 | 7.14382 | 259 ft | 153 kts | 138° |
| 2026-05-04 17:54 | 50.86171 | 7.15629 | 584 ft | 174 kts | 137° |
| 2026-05-04 17:54 | 50.85277 | 7.16885 | 1161 ft | 173 kts | 138° |
| 2026-05-04 17:54 | 50.84379 | 7.18129 | 1593 ft | 174 kts | 137° |
| 2026-05-04 17:54 | 50.83477 | 7.19401 | 1991 ft | 178 kts | 139° |
| 2026-05-04 17:55 | 50.82523 | 7.20733 | 2269 ft | 190 kts | 138° |
| 2026-05-04 17:55 | 50.81499 | 7.22168 | 2632 ft | 199 kts | 138° |
| 2026-05-04 17:55 | 50.80453 | 7.23627 | 3114 ft | 202 kts | 140° |
| 2026-05-04 17:55 | 50.79249 | 7.24720 | 3605 ft | 204 kts | 163° |
| 2026-05-04 17:56 | 50.77851 | 7.24923 | 4110 ft | 205 kts | 188° |
| 2026-05-04 17:56 | 50.76518 | 7.24225 | 4635 ft | 205 kts | 211° |
| 2026-05-04 17:56 | 50.75467 | 7.22764 | 4957 ft | 203 kts | 234° |
| 2026-05-04 17:56 | 50.74865 | 7.20773 | 4995 ft | 202 kts | 257° |
| 2026-05-04 17:57 | 50.74815 | 7.18558 | 5000 ft | 204 kts | 278° |
| 2026-05-04 17:57 | 50.75111 | 7.16263 | 5031 ft | 226 kts | 281° |
| 2026-05-04 17:57 | 50.75484 | 7.13688 | 4947 ft | 249 kts | 282° |
| 2026-05-04 17:57 | 50.75872 | 7.10999 | 4977 ft | 253 kts | 281° |
| 2026-05-04 17:58 | 50.76259 | 7.08269 | 4997 ft | 260 kts | 281° |
| 2026-05-04 17:58 | 50.76659 | 7.05390 | 5319 ft | 274 kts | 281° |
| 2026-05-04 17:58 | 50.77062 | 7.02460 | 6096 ft | 273 kts | 281° |
| 2026-05-04 17:58 | 50.77463 | 6.99529 | 6786 ft | 275 kts | 281° |
| 2026-05-04 17:59 | 50.77864 | 6.96587 | 7415 ft | 278 kts | 281° |
| 2026-05-04 17:59 | 50.78268 | 6.93604 | 8071 ft | 281 kts | 281° |
| 2026-05-04 17:59 | 50.79084 | 6.87562 | 9318 ft | 286 kts | 281° |
| 2026-05-04 18:00 | 50.79498 | 6.84483 | 9918 ft | 290 kts | 280° |
| 2026-05-04 18:00 | 50.79916 | 6.81359 | 10444 ft | 296 kts | 280° |
| 2026-05-04 18:00 | 50.80355 | 6.78064 | 10734 ft | 311 kts | 280° |
| 2026-05-04 18:00 | 50.80807 | 6.74666 | 11021 ft | 326 kts | 280° |
| 2026-05-04 18:01 | 50.81275 | 6.71153 | 11483 ft | 333 kts | 280° |
| 2026-05-04 18:01 | 50.81742 | 6.67632 | 12078 ft | 335 kts | 279° |
| 2026-05-04 18:01 | 50.82114 | 6.64009 | 12673 ft | 336 kts | 275° |
| 2026-05-04 18:02 | 50.82380 | 6.56649 | 13806 ft | 340 kts | 269° |
| 2026-05-04 18:02 | 50.82425 | 6.52895 | 14370 ft | 343 kts | 269° |
| 2026-05-04 18:02 | 50.82465 | 6.49323 | 14896 ft | 344 kts | 269° |
| 2026-05-04 18:02 | 50.82507 | 6.45581 | 15383 ft | 348 kts | 269° |
| 2026-05-04 18:03 | 50.82550 | 6.41730 | 15618 ft | 360 kts | 269° |
| 2026-05-04 18:03 | 50.82593 | 6.37767 | 15845 ft | 371 kts | 269° |
| 2026-05-04 18:03 | 50.82638 | 6.33667 | 16063 ft | 382 kts | 268° |
| 2026-05-04 18:03 | 50.82684 | 6.29414 | 16344 ft | 390 kts | 268° |
| 2026-05-04 18:04 | 50.82730 | 6.25141 | 16772 ft | 393 kts | 268° |
| 2026-05-04 18:04 | 50.82774 | 6.20926 | 17204 ft | 394 kts | 268° |
| 2026-05-04 18:04 | 50.82856 | 6.12445 | 17993 ft | 399 kts | 268° |
| 2026-05-04 18:05 | 50.82895 | 6.08152 | 18385 ft | 400 kts | 268° |
| 2026-05-04 18:05 | 50.82933 | 6.03709 | 18768 ft | 403 kts | 268° |
| 2026-05-04 18:05 | 50.82879 | 5.99271 | 19160 ft | 404 kts | 263° |
| 2026-05-04 18:05 | 50.82238 | 5.94977 | 19516 ft | 402 kts | 246° |
| 2026-05-04 18:06 | 50.78728 | 5.88350 | 20277 ft | 401 kts | 213° |
| 2026-05-04 18:06 | 50.76302 | 5.86201 | 20645 ft | 404 kts | 209° |
| 2026-05-04 18:06 | 50.73846 | 5.84103 | 20953 ft | 407 kts | 209° |
| 2026-05-04 18:07 | 50.71337 | 5.81962 | 21283 ft | 410 kts | 209° |
| 2026-05-04 18:07 | 50.68837 | 5.79822 | 21609 ft | 412 kts | 209° |
| 2026-05-04 18:07 | 50.66330 | 5.77673 | 21919 ft | 414 kts | 209° |
| 2026-05-04 18:07 | 50.63796 | 5.75501 | 22224 ft | 417 kts | 209° |
| 2026-05-04 18:08 | 50.61209 | 5.73417 | 22514 ft | 419 kts | 203° |
| 2026-05-04 18:08 | 50.58422 | 5.72112 | 22812 ft | 422 kts | 192° |
| 2026-05-04 18:08 | 50.55502 | 5.71719 | 23125 ft | 425 kts | 181° |
| 2026-05-04 18:08 | 50.52528 | 5.72126 | 23436 ft | 428 kts | 175° |
| 2026-05-04 18:09 | 50.46614 | 5.73284 | 24035 ft | 431 kts | 175° |
| 2026-05-04 18:09 | 50.40655 | 5.74452 | 24626 ft | 433 kts | 175° |
| 2026-05-04 18:10 | 50.37683 | 5.75025 | 24901 ft | 434 kts | 175° |
| 2026-05-04 18:10 | 50.34689 | 5.75598 | 25185 ft | 436 kts | 175° |
| 2026-05-04 18:10 | 50.31664 | 5.76174 | 25484 ft | 437 kts | 175° |
| 2026-05-04 18:10 | 50.28654 | 5.76746 | 25775 ft | 438 kts | 175° |
| 2026-05-04 18:11 | 50.25638 | 5.77318 | 26063 ft | 439 kts | 175° |
| 2026-05-04 18:11 | 50.22610 | 5.77892 | 26406 ft | 438 kts | 175° |
| 2026-05-04 18:11 | 50.19594 | 5.78463 | 26781 ft | 436 kts | 175° |
| 2026-05-04 18:11 | 50.16594 | 5.79031 | 27140 ft | 435 kts | 175° |
| 2026-05-04 18:12 | 50.13605 | 5.79595 | 27500 ft | 433 kts | 176° |
| 2026-05-04 18:12 | 50.10615 | 5.80247 | 27864 ft | 433 kts | 173° |
| 2026-05-04 18:12 | 50.07666 | 5.81152 | 28240 ft | 433 kts | 170° |
| 2026-05-04 18:12 | 50.04770 | 5.82313 | 28616 ft | 432 kts | 167° |
| 2026-05-04 18:13 | 50.01924 | 5.83722 | 28985 ft | 432 kts | 165° |
| 2026-05-04 18:13 | 49.99183 | 5.85143 | 29342 ft | 430 kts | 165° |
| 2026-05-04 18:13 | 49.93537 | 5.88054 | 30104 ft | 427 kts | 165° |
| 2026-05-04 18:14 | 49.90721 | 5.89504 | 30502 ft | 426 kts | 165° |
| 2026-05-04 18:14 | 49.87963 | 5.90924 | 30892 ft | 424 kts | 165° |
| 2026-05-04 18:14 | 49.85177 | 5.92357 | 31290 ft | 422 kts | 165° |
| 2026-05-04 18:15 | 49.79669 | 5.95185 | 32053 ft | 419 kts | 166° |
| 2026-05-04 18:15 | 49.74191 | 5.97991 | 32705 ft | 418 kts | 166° |
| 2026-05-04 18:15 | 49.71412 | 5.99412 | 32986 ft | 419 kts | 166° |
| 2026-05-04 18:16 | 49.68643 | 6.00826 | 33248 ft | 419 kts | 166° |
| 2026-05-04 18:16 | 49.65866 | 6.02242 | 33501 ft | 420 kts | 166° |
| 2026-05-04 18:16 | 49.63094 | 6.03654 | 33748 ft | 420 kts | 166° |
| 2026-05-04 18:17 | 49.57657 | 6.06418 | 34031 ft | 420 kts | 166° |
| 2026-05-04 18:17 | 49.54882 | 6.07524 | 34050 ft | 415 kts | 174° |
| 2026-05-04 18:18 | 49.46336 | 6.08486 | 34026 ft | 410 kts | 180° |
| 2026-05-04 18:18 | 49.40693 | 6.08964 | 33962 ft | 411 kts | 180° |
| 2026-05-04 18:19 | 49.32223 | 6.09713 | 33961 ft | 412 kts | 180° |
| 2026-05-04 18:19 | 49.26592 | 6.10219 | 33965 ft | 412 kts | 180° |
| 2026-05-04 18:20 | 49.20940 | 6.10726 | 33976 ft | 413 kts | 180° |
| 2026-05-04 18:20 | 49.15335 | 6.11228 | 33983 ft | 414 kts | 180° |
| 2026-05-04 18:21 | 49.09627 | 6.11740 | 33983 ft | 414 kts | 180° |
| 2026-05-04 18:21 | 49.03908 | 6.12253 | 33982 ft | 414 kts | 180° |
| 2026-05-04 18:22 | 48.98189 | 6.12764 | 33982 ft | 414 kts | 180° |
| 2026-05-04 18:22 | 48.92437 | 6.13160 | 33981 ft | 414 kts | 181° |
| 2026-05-04 18:23 | 48.86756 | 6.13477 | 33981 ft | 415 kts | 181° |
| 2026-05-04 18:23 | 48.81022 | 6.13805 | 33981 ft | 415 kts | 181° |
| 2026-05-04 18:24 | 48.75283 | 6.14140 | 33983 ft | 415 kts | 180° |
| 2026-05-04 18:24 | 48.69511 | 6.14478 | 33990 ft | 416 kts | 180° |
| 2026-05-04 18:25 | 48.63782 | 6.14814 | 33999 ft | 416 kts | 180° |
| 2026-05-04 18:25 | 48.58021 | 6.15150 | 34005 ft | 416 kts | 180° |
| 2026-05-04 18:26 | 48.52229 | 6.15488 | 34009 ft | 417 kts | 180° |
| 2026-05-04 18:26 | 48.46469 | 6.15825 | 34011 ft | 417 kts | 180° |
| 2026-05-04 18:27 | 48.40675 | 6.16163 | 34011 ft | 417 kts | 180° |
| 2026-05-04 18:27 | 48.34913 | 6.16500 | 34011 ft | 417 kts | 180° |
| 2026-05-04 18:28 | 48.29122 | 6.16835 | 34010 ft | 417 kts | 180° |
| 2026-05-04 18:28 | 48.23341 | 6.17169 | 34010 ft | 417 kts | 180° |
| 2026-05-04 18:29 | 48.17582 | 6.17501 | 34010 ft | 417 kts | 180° |
| 2026-05-04 18:29 | 48.11793 | 6.17832 | 34009 ft | 417 kts | 180° |
| 2026-05-04 18:30 | 48.03140 | 6.18326 | 34007 ft | 417 kts | 180° |
| 2026-05-04 18:31 | 47.97377 | 6.18655 | 34006 ft | 417 kts | 180° |
| 2026-05-04 18:31 | 47.91607 | 6.18983 | 34005 ft | 417 kts | 180° |
| 2026-05-04 18:32 | 47.85894 | 6.19307 | 34007 ft | 417 kts | 180° |
| 2026-05-04 18:32 | 47.80180 | 6.19631 | 34007 ft | 417 kts | 180° |
| 2026-05-04 18:33 | 47.74442 | 6.19956 | 34007 ft | 417 kts | 180° |
| 2026-05-04 18:33 | 47.68661 | 6.20281 | 34006 ft | 417 kts | 180° |
| 2026-05-04 18:34 | 47.62884 | 6.20606 | 34005 ft | 417 kts | 180° |
| 2026-05-04 18:34 | 47.57096 | 6.20932 | 34004 ft | 418 kts | 180° |
| 2026-05-04 18:35 | 47.51295 | 6.21258 | 34003 ft | 418 kts | 180° |
| 2026-05-04 18:35 | 47.45497 | 6.21580 | 34002 ft | 418 kts | 180° |
| 2026-05-04 18:36 | 47.39692 | 6.21903 | 34002 ft | 419 kts | 180° |
| 2026-05-04 18:36 | 47.33869 | 6.22246 | 34004 ft | 419 kts | 180° |
| 2026-05-04 18:37 | 47.28048 | 6.22603 | 34006 ft | 420 kts | 180° |
| 2026-05-04 18:37 | 47.22242 | 6.22957 | 34008 ft | 420 kts | 180° |
| 2026-05-04 18:38 | 47.16444 | 6.23310 | 34012 ft | 421 kts | 180° |
| 2026-05-04 18:38 | 47.10597 | 6.23664 | 34016 ft | 422 kts | 180° |
| 2026-05-04 18:39 | 47.04867 | 6.23655 | 34020 ft | 420 kts | 185° |
| 2026-05-04 18:39 | 46.99052 | 6.22931 | 34024 ft | 420 kts | 187° |
| 2026-05-04 18:40 | 46.93249 | 6.22163 | 34026 ft | 420 kts | 187° |
| 2026-05-04 18:40 | 46.87438 | 6.21393 | 34028 ft | 421 kts | 187° |
| 2026-05-04 18:41 | 46.81709 | 6.20632 | 34028 ft | 421 kts | 187° |
| 2026-05-04 18:41 | 46.75850 | 6.19855 | 34029 ft | 421 kts | 187° |
| 2026-05-04 18:42 | 46.69997 | 6.19080 | 34028 ft | 421 kts | 187° |
| 2026-05-04 18:42 | 46.64165 | 6.18309 | 34030 ft | 422 kts | 188° |
| 2026-05-04 18:43 | 46.58345 | 6.17542 | 34033 ft | 422 kts | 188° |
| 2026-05-04 18:43 | 46.52514 | 6.16775 | 34038 ft | 423 kts | 188° |
| 2026-05-04 18:44 | 46.46670 | 6.16007 | 34041 ft | 423 kts | 188° |
| 2026-05-04 18:44 | 46.40827 | 6.15248 | 34038 ft | 423 kts | 188° |
| 2026-05-04 18:45 | 46.34998 | 6.14475 | 34036 ft | 423 kts | 188° |
| 2026-05-04 18:45 | 46.29101 | 6.14360 | 34033 ft | 427 kts | 180° |
| 2026-05-04 18:46 | 46.23223 | 6.15494 | 34031 ft | 431 kts | 172° |
| 2026-05-04 18:46 | 46.17452 | 6.17873 | 34034 ft | 436 kts | 163° |
| 2026-05-04 18:47 | 46.11852 | 6.21122 | 34036 ft | 437 kts | 162° |
| 2026-05-04 18:47 | 46.06215 | 6.24398 | 34041 ft | 437 kts | 162° |
| 2026-05-04 18:48 | 46.00612 | 6.27649 | 34049 ft | 437 kts | 162° |
| 2026-05-04 18:48 | 45.95030 | 6.30876 | 34055 ft | 437 kts | 162° |
| 2026-05-04 18:49 | 45.89399 | 6.34150 | 34065 ft | 437 kts | 162° |
| 2026-05-04 18:49 | 45.83833 | 6.37500 | 34034 ft | 439 kts | 159° |
| 2026-05-04 18:50 | 45.78363 | 6.40974 | 33915 ft | 439 kts | 161° |
| 2026-05-04 18:50 | 45.72810 | 6.44408 | 33866 ft | 439 kts | 161° |
| 2026-05-04 18:51 | 45.67311 | 6.47797 | 34033 ft | 439 kts | 161° |
| 2026-05-04 18:51 | 45.61960 | 6.51119 | 34104 ft | 440 kts | 161° |
| 2026-05-04 18:52 | 45.51054 | 6.57875 | 34129 ft | 441 kts | 161° |
| 2026-05-04 18:53 | 45.45497 | 6.61316 | 34136 ft | 438 kts | 161° |
| 2026-05-04 18:53 | 45.42731 | 6.63032 | 33846 ft | 435 kts | 161° |
| 2026-05-04 18:53 | 45.39950 | 6.64751 | 33452 ft | 438 kts | 161° |
| 2026-05-04 18:53 | 45.37176 | 6.66459 | 33315 ft | 440 kts | 161° |
| 2026-05-04 18:54 | 45.34393 | 6.68170 | 33307 ft | 441 kts | 161° |
| 2026-05-04 18:54 | 45.28814 | 6.71591 | 33226 ft | 442 kts | 161° |
| 2026-05-04 18:55 | 45.23245 | 6.75003 | 32849 ft | 436 kts | 161° |
| 2026-05-04 18:55 | 45.17691 | 6.78395 | 31197 ft | 448 kts | 161° |
| 2026-05-04 18:55 | 45.14828 | 6.80141 | 30383 ft | 451 kts | 161° |
| 2026-05-04 18:56 | 45.11934 | 6.81908 | 29692 ft | 451 kts | 161° |
| 2026-05-04 18:56 | 45.09087 | 6.83642 | 28761 ft | 451 kts | 161° |
| 2026-05-04 18:56 | 45.06208 | 6.85392 | 27758 ft | 452 kts | 160° |
| 2026-05-04 18:56 | 45.03352 | 6.87125 | 26703 ft | 454 kts | 160° |
| 2026-05-04 18:57 | 45.00485 | 6.88863 | 25606 ft | 457 kts | 160° |
| 2026-05-04 18:57 | 44.97579 | 6.90627 | 24460 ft | 459 kts | 159° |
| 2026-05-04 18:57 | 44.94682 | 6.92385 | 23340 ft | 462 kts | 159° |
| 2026-05-04 18:57 | 44.91753 | 6.94159 | 22241 ft | 465 kts | 159° |
| 2026-05-04 18:58 | 44.88830 | 6.95925 | 21267 ft | 464 kts | 159° |
| 2026-05-04 18:58 | 44.85958 | 6.97657 | 20403 ft | 455 kts | 159° |
| 2026-05-04 18:58 | 44.83103 | 6.99381 | 19922 ft | 437 kts | 159° |
| 2026-05-04 18:58 | 44.80373 | 7.01015 | 19338 ft | 426 kts | 159° |
| 2026-05-04 18:59 | 44.77666 | 7.02640 | 18467 ft | 425 kts | 159° |
| 2026-05-04 18:59 | 44.74966 | 7.04261 | 17697 ft | 422 kts | 159° |
| 2026-05-04 18:59 | 44.72267 | 7.05882 | 17010 ft | 413 kts | 159° |
| 2026-05-04 18:59 | 44.69696 | 7.07426 | 16283 ft | 406 kts | 159° |
| 2026-05-04 19:00 | 44.67112 | 7.08806 | 15455 ft | 403 kts | 166° |
| 2026-05-04 19:00 | 44.64443 | 7.09562 | 14846 ft | 395 kts | 172° |
| 2026-05-04 19:00 | 44.61762 | 7.10151 | 14241 ft | 389 kts | 173° |
| 2026-05-04 19:00 | 44.59082 | 7.10713 | 13829 ft | 393 kts | 173° |
| 2026-05-04 19:01 | 44.56419 | 7.11263 | 13326 ft | 388 kts | 173° |
| 2026-05-04 19:01 | 44.53718 | 7.11813 | 13003 ft | 391 kts | 173° |
| 2026-05-04 19:01 | 44.51023 | 7.12354 | 12985 ft | 392 kts | 173° |
| 2026-05-04 19:01 | 44.48323 | 7.12887 | 13008 ft | 394 kts | 173° |
| 2026-05-04 19:02 | 44.45604 | 7.13417 | 13017 ft | 395 kts | 173° |
| 2026-05-04 19:02 | 44.42873 | 7.13943 | 13021 ft | 396 kts | 173° |
| 2026-05-04 19:02 | 44.40151 | 7.14465 | 13013 ft | 396 kts | 173° |
| 2026-05-04 19:02 | 44.37421 | 7.14986 | 12994 ft | 396 kts | 173° |
| 2026-05-04 19:03 | 44.34673 | 7.15502 | 12969 ft | 398 kts | 173° |
| 2026-05-04 19:03 | 44.31933 | 7.16011 | 12937 ft | 397 kts | 173° |
| 2026-05-04 19:03 | 44.29194 | 7.16527 | 12912 ft | 397 kts | 173° |
| 2026-05-04 19:03 | 44.26458 | 7.17043 | 12864 ft | 397 kts | 173° |
| 2026-05-04 19:04 | 44.23722 | 7.17554 | 12865 ft | 397 kts | 173° |
| 2026-05-04 19:04 | 44.20989 | 7.18071 | 12842 ft | 397 kts | 172° |
| 2026-05-04 19:04 | 44.18264 | 7.18590 | 12851 ft | 397 kts | 173° |
| 2026-05-04 19:04 | 44.15513 | 7.19121 | 12882 ft | 397 kts | 173° |
| 2026-05-04 19:05 | 44.12781 | 7.19658 | 12929 ft | 397 kts | 174° |
| 2026-05-04 19:05 | 44.10050 | 7.20182 | 13013 ft | 396 kts | 172° |
| 2026-05-04 19:05 | 44.07330 | 7.20699 | 13056 ft | 397 kts | 174° |
| 2026-05-04 19:05 | 44.04587 | 7.21219 | 13064 ft | 399 kts | 173° |
| 2026-05-04 19:06 | 44.01852 | 7.21740 | 13061 ft | 399 kts | 173° |
| 2026-05-04 19:06 | 43.99111 | 7.22266 | 12952 ft | 398 kts | 173° |
| 2026-05-04 19:06 | 43.96348 | 7.22790 | 12913 ft | 398 kts | 173° |
| 2026-05-04 19:06 | 43.93608 | 7.23310 | 12877 ft | 399 kts | 173° |
| 2026-05-04 19:07 | 43.90863 | 7.23834 | 12824 ft | 397 kts | 172° |
| 2026-05-04 19:07 | 43.88125 | 7.24351 | 12824 ft | 397 kts | 173° |
| 2026-05-04 19:07 | 43.85400 | 7.24879 | 12852 ft | 397 kts | 173° |
| 2026-05-04 19:07 | 43.82687 | 7.25413 | 12963 ft | 390 kts | 173° |
| 2026-05-04 19:08 | 43.80050 | 7.25932 | 12774 ft | 378 kts | 173° |
| 2026-05-04 19:08 | 43.77484 | 7.26448 | 12509 ft | 367 kts | 173° |
| 2026-05-04 19:08 | 43.75001 | 7.26954 | 11982 ft | 359 kts | 173° |
| 2026-05-04 19:08 | 43.72549 | 7.27459 | 11231 ft | 358 kts | 173° |
| 2026-05-04 19:09 | 43.70112 | 7.27968 | 10585 ft | 356 kts | 173° |
| 2026-05-04 19:09 | 43.67714 | 7.28468 | 10320 ft | 343 kts | 173° |
| 2026-05-04 19:09 | 43.65410 | 7.28944 | 10112 ft | 330 kts | 173° |
| 2026-05-04 19:09 | 43.63184 | 7.29374 | 9902 ft | 318 kts | 173° |
| 2026-05-04 19:10 | 43.61018 | 7.29780 | 9700 ft | 307 kts | 173° |
| 2026-05-04 19:10 | 43.58942 | 7.30160 | 9502 ft | 297 kts | 173° |
| 2026-05-04 19:10 | 43.56933 | 7.30486 | 9313 ft | 287 kts | 173° |
| 2026-05-04 19:10 | 43.54992 | 7.30785 | 9112 ft | 278 kts | 173° |
| 2026-05-04 19:11 | 43.53088 | 7.31044 | 8766 ft | 276 kts | 178° |
| 2026-05-04 19:11 | 43.51224 | 7.30555 | 8337 ft | 278 kts | 205° |
| 2026-05-04 19:11 | 43.49719 | 7.28928 | 7907 ft | 282 kts | 231° |
| 2026-05-04 19:11 | 43.48806 | 7.26555 | 7377 ft | 284 kts | 254° |
| 2026-05-04 19:12 | 43.48514 | 7.23898 | 6816 ft | 282 kts | 262° |
| 2026-05-04 19:12 | 43.48152 | 7.18603 | 5474 ft | 280 kts | 265° |
| 2026-05-04 19:12 | 43.48381 | 7.15982 | 4817 ft | 279 kts | 291° |
| 2026-05-04 19:13 | 43.49240 | 7.13640 | 4235 ft | 274 kts | 301° |
| 2026-05-04 19:13 | 43.50220 | 7.11474 | 3855 ft | 262 kts | 303° |
| 2026-05-04 19:13 | 43.51258 | 7.09489 | 3199 ft | 253 kts | 313° |
| 2026-05-04 19:13 | 43.52633 | 7.08169 | 2619 ft | 238 kts | 346° |
| 2026-05-04 19:14 | 43.54210 | 7.08030 | 2316 ft | 221 kts | 8° |
| 2026-05-04 19:14 | 43.55624 | 7.08514 | 2132 ft | 200 kts | 26° |
| 2026-05-04 19:14 | 43.56788 | 7.09407 | 2008 ft | 186 kts | 36° |
| 2026-05-04 19:14 | 43.57807 | 7.10490 | 1993 ft | 186 kts | 42° |
| 2026-05-04 19:15 | 43.58769 | 7.11659 | 1838 ft | 185 kts | 45° |
| 2026-05-04 19:15 | 43.59674 | 7.12864 | 1566 ft | 175 kts | 47° |
| 2026-05-04 19:15 | 43.60508 | 7.14017 | 1325 ft | 165 kts | 47° |
| 2026-05-04 19:15 | 43.61278 | 7.15076 | 1098 ft | 153 kts | 48° |
| 2026-05-04 19:16 | 43.62045 | 7.16127 | 927 ft | 158 kts | 47° |
| 2026-05-04 19:16 | 43.62819 | 7.17181 | 724 ft | 156 kts | 47° |
| 2026-05-04 19:16 | 43.63582 | 7.18223 | 518 ft | 154 kts | 47° |
| 2026-05-04 19:16 | 43.64302 | 7.19206 | 296 ft | 138 kts | 48° |
| 2026-05-04 19:17 | 43.64966 | 7.20121 | 117 ft | 133 kts | 49° |
| 2026-05-04 19:17 | 43.65594 | 7.20992 | 29 ft | 115 kts | 45° |
| 2026-05-04 19:17 | 43.65950 | 7.21474 | 35 ft | 38 kts | 44° |
| 2026-05-04 19:17 | 43.66128 | 7.21716 | 36 ft | 35 kts | 45° |